createdAt,value
2022-10-01T00:00:06.917Z,8.20
2022-10-01T00:01:14.803Z,8.80
2022-10-01T00:02:16.737Z,7.80
2022-10-01T00:03:20.940Z,8.38
2022-10-01T00:04:22.958Z,7.75
2022-10-01T00:05:25.708Z,8.02
2022-10-01T00:06:27.450Z,8.45
2022-10-01T00:07:31.068Z,8.82
2022-10-01T00:08:34.370Z,8.20
2022-10-01T00:09:37.683Z,8.15
2022-10-01T00:10:41.844Z,8.77
2022-10-01T00:11:44.584Z,8.32
2022-10-01T00:12:48.658Z,9.35
2022-10-01T00:13:52.309Z,8.35
2022-10-01T00:14:55.444Z,8.63
2022-10-01T00:15:59.379Z,7.32
2022-10-01T00:17:01.195Z,8.93
2022-10-01T00:18:04.129Z,10.00
2022-10-01T00:19:05.907Z,9.95
2022-10-01T00:20:14.626Z,8.77
2022-10-01T00:21:18.158Z,8.38
2022-10-01T00:22:20.998Z,8.15
2022-10-01T00:23:22.791Z,8.77
2022-10-01T00:24:25.540Z,8.77
2022-10-01T00:25:27.431Z,8.85
2022-10-01T00:26:32.467Z,9.15
2022-10-01T00:27:35.783Z,9.07
2022-10-01T00:28:38.509Z,9.57
2022-10-01T00:29:40.722Z,10.43
2022-10-01T00:30:48.831Z,8.15
2022-10-01T00:31:50.806Z,8.77
2022-10-01T00:32:55.033Z,8.40
2022-10-01T00:33:58.336Z,8.52
2022-10-01T00:35:02.680Z,8.70
2022-10-01T00:36:05.627Z,8.95
2022-10-01T00:37:10.301Z,9.10
2022-10-01T00:38:12.337Z,9.23
2022-10-01T00:39:15.679Z,9.32
2022-10-01T00:40:19.614Z,9.20
2022-10-01T00:41:22.350Z,9.60
2022-10-01T00:42:26.805Z,10.95
2022-10-01T00:43:31.657Z,8.23
2022-10-01T00:44:36.005Z,8.13
2022-10-01T00:45:38.830Z,8.57
2022-10-01T00:46:45.122Z,9.55
2022-10-01T00:47:52.706Z,10.00
2022-10-01T00:48:59.833Z,9.00
2022-10-01T00:50:07.043Z,9.07
2022-10-01T00:51:09.083Z,9.02
2022-10-01T00:52:15.652Z,7.65
2022-10-01T00:53:20.976Z,8.75
2022-10-01T00:54:29.064Z,8.75
2022-10-01T00:55:34.149Z,8.70
2022-10-01T00:56:38.151Z,9.23
2022-10-01T00:57:40.883Z,9.20
2022-10-01T00:58:44.271Z,8.30
2022-10-01T00:59:46.844Z,9.93
2022-10-01T01:00:50.607Z,8.82
2022-10-01T01:01:54.234Z,8.93
2022-10-01T01:02:57.160Z,10.18
2022-10-01T01:03:59.530Z,9.02
2022-10-01T01:05:02.615Z,8.77
2022-10-01T01:06:08.021Z,9.60
2022-10-01T01:07:10.979Z,10.23
2022-10-01T01:08:12.739Z,8.88
2022-10-01T01:09:15.639Z,9.80
2022-10-01T01:10:28.104Z,10.48
2022-10-01T01:11:40.019Z,9.63
2022-10-01T01:12:57.782Z,8.85
2022-10-01T01:14:08.334Z,9.80
2022-10-01T01:15:16.659Z,7.90
2022-10-01T01:16:24.975Z,9.85
2022-10-01T01:17:35.113Z,9.20
2022-10-01T01:18:44.250Z,9.48
2022-10-01T01:20:05.725Z,9.48
2022-10-01T01:21:22.388Z,8.32
2022-10-01T01:22:27.777Z,9.52
2022-10-01T01:23:49.085Z,9.07
2022-10-01T01:24:57.638Z,8.30
2022-10-01T01:26:05.723Z,9.25
2022-10-01T01:27:26.153Z,10.48
2022-10-01T01:28:33.718Z,9.10
2022-10-01T01:29:42.208Z,10.35
2022-10-01T01:30:44.433Z,8.52
2022-10-01T01:31:48.339Z,8.52
2022-10-01T01:32:56.064Z,10.25
2022-10-01T01:34:00.603Z,8.95
2022-10-01T01:35:07.853Z,8.65
2022-10-01T01:36:16.236Z,8.55
2022-10-01T01:37:24.049Z,8.10
2022-10-01T01:38:30.322Z,10.43
2022-10-01T01:39:36.089Z,8.68
2022-10-01T01:40:41.351Z,8.10
2022-10-01T01:41:50.083Z,9.27
2022-10-01T01:42:54.036Z,9.18
2022-10-01T01:44:02.170Z,8.57
2022-10-01T01:45:09.805Z,9.70
2022-10-01T01:46:17.685Z,12.45
2022-10-01T01:47:21.926Z,8.90
2022-10-01T01:48:25.224Z,8.13
2022-10-01T01:49:27.651Z,8.13
2022-10-01T01:50:35.238Z,7.03
2022-10-01T01:51:43.067Z,7.78
2022-10-01T01:52:46.056Z,6.95
2022-10-01T01:53:47.887Z,8.27
2022-10-01T01:54:52.353Z,7.88
2022-10-01T01:55:56.905Z,7.05
2022-10-01T01:57:01.520Z,8.35
2022-10-01T01:58:03.874Z,7.55
2022-10-01T01:59:08.579Z,9.27
2022-10-01T02:00:12.464Z,9.57
2022-10-01T02:01:39.350Z,8.30
2022-10-01T02:02:47.132Z,8.88
2022-10-01T02:03:50.163Z,9.80
2022-10-01T02:04:56.625Z,12.38
2022-10-01T02:06:13.193Z,8.82
2022-10-01T02:07:57.374Z,8.82
2022-10-01T02:09:05.732Z,10.25
2022-10-01T02:10:20.022Z,8.38
2022-10-01T02:11:28.609Z,7.72
2022-10-01T02:12:43.445Z,9.48
2022-10-01T02:13:57.295Z,7.90
2022-10-01T02:15:10.711Z,9.95
2022-10-01T02:16:21.035Z,9.52
2022-10-01T02:17:32.875Z,8.77
2022-10-01T02:18:42.383Z,8.93
2022-10-01T02:19:51.340Z,8.70
2022-10-01T02:21:02.825Z,9.55
2022-10-01T02:22:12.680Z,8.27
2022-10-01T02:23:17.979Z,8.70
2022-10-01T02:24:29.070Z,10.23
2022-10-01T02:25:39.944Z,8.95
2022-10-01T02:26:44.458Z,7.40
2022-10-01T02:27:52.950Z,9.55
2022-10-01T02:29:02.283Z,8.65
2022-10-01T02:30:09.733Z,7.30
2022-10-01T02:31:13.990Z,7.43
2022-10-01T02:32:19.264Z,8.40
2022-10-01T02:33:25.062Z,7.85
2022-10-01T02:34:31.259Z,9.07
2022-10-01T02:35:35.876Z,7.70
2022-10-01T02:36:42.354Z,7.13
2022-10-01T02:37:46.894Z,7.40
2022-10-01T02:38:51.243Z,7.70
2022-10-01T02:39:56.568Z,8.65
2022-10-01T02:41:02.649Z,8.73
2022-10-01T02:42:06.597Z,8.35
2022-10-01T02:43:14.406Z,7.50
2022-10-01T02:44:22.906Z,7.65
2022-10-01T02:45:32.146Z,7.72
2022-10-01T02:46:42.166Z,7.40
2022-10-01T02:47:49.140Z,9.98
2022-10-01T02:48:51.749Z,8.90
2022-10-01T02:49:55.327Z,7.35
2022-10-01T02:51:09.163Z,8.15
2022-10-01T02:52:17.808Z,6.82
2022-10-01T02:53:23.276Z,7.65
2022-10-01T02:54:30.388Z,7.30
2022-10-01T02:55:37.357Z,7.70
2022-10-01T02:56:58.922Z,9.80
2022-10-01T02:58:01.732Z,7.03
2022-10-01T02:59:07.415Z,7.30
2022-10-01T03:00:12.762Z,8.20
2022-10-01T03:01:16.587Z,7.53
2022-10-01T03:02:20.711Z,7.53
2022-10-01T03:03:23.757Z,8.07
2022-10-01T03:04:26.570Z,8.15
2022-10-01T03:05:28.847Z,8.65
2022-10-01T03:06:31.641Z,6.50
2022-10-01T03:07:35.593Z,7.45
2022-10-01T03:08:38.513Z,7.82
2022-10-01T03:09:40.468Z,7.40
2022-10-01T03:10:46.764Z,7.65
2022-10-01T03:11:49.007Z,8.27
2022-10-01T03:12:51.905Z,7.55
2022-10-01T03:13:53.949Z,6.22
2022-10-01T03:14:56.903Z,6.97
2022-10-01T03:15:58.792Z,8.07
2022-10-01T03:17:03.045Z,7.65
2022-10-01T03:18:04.917Z,6.43
2022-10-01T03:19:07.620Z,7.30
2022-10-01T03:20:10.084Z,6.82
2022-10-01T03:21:12.863Z,6.32
2022-10-01T03:22:18.185Z,8.20
2022-10-01T03:23:20.919Z,7.60
2022-10-01T03:24:24.029Z,7.75
2022-10-01T03:25:27.102Z,6.97
2022-10-01T03:26:28.911Z,7.20
2022-10-01T03:27:31.805Z,7.28
2022-10-01T03:28:33.620Z,7.82
2022-10-01T03:29:36.339Z,7.10
2022-10-01T03:30:38.132Z,6.57
2022-10-01T03:31:41.084Z,8.65
2022-10-01T03:32:44.193Z,7.00
2022-10-01T03:33:46.935Z,7.32
2022-10-01T03:34:48.723Z,6.65
2022-10-01T03:35:51.514Z,6.35
2022-10-01T03:36:54.407Z,5.82
2022-10-01T03:37:56.183Z,6.35
2022-10-01T03:38:59.097Z,6.60
2022-10-01T03:40:01.159Z,7.57
2022-10-01T03:41:03.924Z,6.85
2022-10-01T03:42:05.961Z,6.22
2022-10-01T03:43:08.729Z,6.70
2022-10-01T03:44:10.527Z,6.90
2022-10-01T03:45:13.336Z,5.80
2022-10-01T03:46:15.211Z,7.15
2022-10-01T03:47:17.968Z,6.05
2022-10-01T03:48:21.082Z,6.93
2022-10-01T03:49:23.986Z,6.32
2022-10-01T03:50:25.839Z,6.53
2022-10-01T03:51:28.933Z,5.65
2022-10-01T03:52:30.735Z,5.13
2022-10-01T03:53:33.643Z,6.30
2022-10-01T03:54:35.444Z,5.28
2022-10-01T03:55:38.541Z,6.97
2022-10-01T03:56:42.587Z,5.50
2022-10-01T03:57:45.331Z,5.88
2022-10-01T03:58:47.128Z,5.88
2022-10-01T03:59:49.841Z,5.38
2022-10-01T04:00:52.983Z,6.60
2022-10-01T04:01:55.865Z,6.13
2022-10-01T04:02:57.786Z,6.43
2022-10-01T04:04:02.395Z,6.40
2022-10-01T04:05:05.493Z,5.47
2022-10-01T04:06:08.344Z,6.47
2022-10-01T04:07:10.057Z,6.38
2022-10-01T04:08:13.432Z,5.85
2022-10-01T04:09:15.190Z,6.78
2022-10-01T04:10:18.093Z,6.10
2022-10-01T04:11:19.840Z,6.30
2022-10-01T04:12:22.588Z,6.75
2022-10-01T04:13:24.355Z,5.60
2022-10-01T04:14:27.074Z,4.50
2022-10-01T04:15:29.073Z,6.15
2022-10-01T04:16:34.833Z,5.13
2022-10-01T04:17:37.203Z,5.88
2022-10-01T04:18:40.004Z,5.68
2022-10-01T04:19:43.076Z,5.55
2022-10-01T04:20:45.861Z,4.93
2022-10-01T04:21:47.965Z,6.15
2022-10-01T04:22:50.740Z,4.40
2022-10-01T04:23:53.327Z,6.57
2022-10-01T04:24:56.266Z,5.38
2022-10-01T04:25:59.979Z,5.43
2022-10-01T04:27:02.705Z,5.78
2022-10-01T04:28:06.241Z,5.53
2022-10-01T04:29:09.623Z,4.90
2022-10-01T04:30:11.485Z,5.78
2022-10-01T04:31:27.424Z,6.30
2022-10-01T04:32:29.341Z,5.63
2022-10-01T04:33:32.082Z,5.65
2022-10-01T04:34:51.443Z,5.20
2022-10-01T04:35:55.500Z,5.22
2022-10-01T04:36:57.217Z,5.63
2022-10-01T04:38:03.322Z,6.28
2022-10-01T04:39:05.344Z,5.55
2022-10-01T04:40:10.600Z,5.18
2022-10-01T04:41:13.780Z,5.68
2022-10-01T04:42:16.716Z,4.75
2022-10-01T04:43:18.608Z,6.10
2022-10-01T04:44:21.395Z,5.22
2022-10-01T04:45:23.590Z,5.20
2022-10-01T04:46:26.561Z,5.38
2022-10-01T04:47:28.692Z,4.50
2022-10-01T04:48:31.456Z,4.75
2022-10-01T04:49:33.556Z,4.40
2022-10-01T04:50:36.335Z,5.88
2022-10-01T04:51:40.484Z,4.78
2022-10-01T04:52:42.373Z,4.65
2022-10-01T04:53:45.292Z,5.22
2022-10-01T04:54:47.102Z,5.57
2022-10-01T04:55:49.908Z,4.40
2022-10-01T04:56:51.676Z,5.43
2022-10-01T04:57:54.571Z,5.18
2022-10-01T04:58:56.309Z,4.97
2022-10-01T04:59:59.031Z,4.65
2022-10-01T05:01:02.238Z,4.32
2022-10-01T05:02:05.284Z,6.00
2022-10-01T05:03:07.168Z,4.32
2022-10-01T05:04:10.021Z,4.57
2022-10-01T05:05:11.824Z,5.20
2022-10-01T05:06:14.617Z,4.60
2022-10-01T05:07:19.357Z,5.65
2022-10-01T05:08:22.526Z,5.00
2022-10-01T05:09:24.371Z,4.30
2022-10-01T05:10:27.516Z,7.20
2022-10-01T05:11:29.620Z,4.35
2022-10-01T05:12:32.431Z,4.90
2022-10-01T05:13:34.212Z,4.75
2022-10-01T05:14:37.059Z,4.45
2022-10-01T05:15:38.802Z,5.28
2022-10-01T05:16:41.693Z,3.63
2022-10-01T05:17:43.789Z,5.05
2022-10-01T05:18:46.778Z,4.65
2022-10-01T05:19:48.865Z,4.43
2022-10-01T05:20:51.605Z,4.47
2022-10-01T05:21:54.367Z,4.65
2022-10-01T05:22:58.559Z,4.25
2022-10-01T05:24:00.755Z,5.55
2022-10-01T05:25:03.563Z,4.53
2022-10-01T05:26:05.679Z,5.30
2022-10-01T05:27:13.242Z,5.30
2022-10-01T05:28:19.802Z,4.63
2022-10-01T05:29:25.642Z,5.00
2022-10-01T05:30:27.546Z,4.63
2022-10-01T05:31:30.452Z,4.20
2022-10-01T05:32:32.622Z,6.30
2022-10-01T05:33:35.376Z,4.07
2022-10-01T05:34:37.224Z,4.40
2022-10-01T05:35:41.925Z,5.35
2022-10-01T05:36:43.718Z,5.10
2022-10-01T05:37:46.546Z,5.90
2022-10-01T05:38:49.696Z,3.97
2022-10-01T05:39:52.438Z,5.43
2022-10-01T05:40:54.209Z,4.85
2022-10-01T05:41:57.718Z,5.57
2022-10-01T05:43:00.426Z,5.10
2022-10-01T05:44:03.938Z,5.57
2022-10-01T05:45:07.124Z,5.38
2022-10-01T05:46:10.273Z,6.13
2022-10-01T05:47:13.249Z,6.57
2022-10-01T05:48:16.071Z,5.10
2022-10-01T05:49:17.820Z,6.25
2022-10-01T05:50:20.579Z,5.72
2022-10-01T05:51:22.368Z,5.15
2022-10-01T05:52:25.192Z,4.88
2022-10-01T05:53:27.457Z,5.55
2022-10-01T05:54:31.582Z,6.18
2022-10-01T05:55:34.974Z,5.72
2022-10-01T05:56:37.883Z,5.63
2022-10-01T05:57:39.917Z,5.57
2022-10-01T05:58:42.635Z,6.50
2022-10-01T05:59:44.412Z,6.05
2022-10-01T06:00:47.179Z,5.43
2022-10-01T06:01:49.233Z,4.78
2022-10-01T06:02:53.109Z,5.05
2022-10-01T06:03:56.290Z,5.25
2022-10-01T06:04:58.061Z,6.05
2022-10-01T06:06:01.561Z,5.80
2022-10-01T06:07:03.640Z,5.55
2022-10-01T06:08:07.586Z,5.88
2022-10-01T06:09:09.580Z,5.25
2022-10-01T06:10:13.773Z,6.13
2022-10-01T06:11:16.936Z,6.57
2022-10-01T06:12:20.035Z,6.78
2022-10-01T06:13:21.899Z,5.60
2022-10-01T06:14:24.612Z,5.97
2022-10-01T06:15:26.386Z,5.15
2022-10-01T06:16:29.467Z,5.35
2022-10-01T06:17:31.294Z,6.10
2022-10-01T06:18:34.019Z,4.85
2022-10-01T06:19:35.910Z,5.35
2022-10-01T06:20:39.591Z,5.20
2022-10-01T06:21:41.331Z,6.32
2022-10-01T06:22:45.174Z,7.05
2022-10-01T06:23:49.290Z,4.80
2022-10-01T06:24:56.058Z,6.60
2022-10-01T06:26:01.731Z,5.55
2022-10-01T06:27:04.638Z,5.43
2022-10-01T06:28:08.661Z,5.18
2022-10-01T06:29:11.702Z,5.70
2022-10-01T06:30:14.057Z,6.13
2022-10-01T06:31:16.919Z,6.07
2022-10-01T06:32:19.728Z,5.05
2022-10-01T06:33:22.486Z,4.28
2022-10-01T06:34:24.235Z,5.00
2022-10-01T06:35:27.128Z,5.18
2022-10-01T06:36:29.028Z,4.20
2022-10-01T06:37:32.063Z,4.65
2022-10-01T06:38:33.899Z,5.68
2022-10-01T06:39:36.674Z,5.65
2022-10-01T06:40:39.325Z,6.07
2022-10-01T06:41:43.498Z,5.65
2022-10-01T06:42:54.792Z,4.88
2022-10-01T06:43:59.475Z,5.70
2022-10-01T06:45:01.385Z,5.32
2022-10-01T06:46:05.467Z,5.70
2022-10-01T06:47:07.380Z,5.55
2022-10-01T06:48:14.557Z,4.43
2022-10-01T06:49:20.386Z,4.28
2022-10-01T06:50:23.814Z,4.38
2022-10-01T06:51:40.505Z,6.13
2022-10-01T06:52:52.072Z,6.03
2022-10-01T06:53:53.862Z,5.45
2022-10-01T06:54:56.608Z,5.35
2022-10-01T06:56:05.517Z,4.57
2022-10-01T06:57:08.695Z,5.07
2022-10-01T06:58:14.841Z,4.10
2022-10-01T06:59:16.571Z,4.00
2022-10-01T07:00:19.646Z,3.58
2022-10-01T07:01:21.884Z,4.70
2022-10-01T07:02:28.859Z,4.50
2022-10-01T07:03:31.265Z,4.15
2022-10-01T07:04:34.177Z,6.47
2022-10-01T07:05:36.114Z,5.22
2022-10-01T07:06:38.876Z,4.25
2022-10-01T07:07:40.676Z,5.13
2022-10-01T07:08:43.548Z,5.35
2022-10-01T07:09:45.513Z,5.63
2022-10-01T07:10:48.260Z,5.07
2022-10-01T07:11:50.212Z,10.10
2022-10-01T07:12:54.401Z,5.68
2022-10-01T07:13:57.647Z,5.68
2022-10-01T07:15:00.683Z,3.90
2022-10-01T07:16:03.515Z,3.92
2022-10-01T07:17:06.577Z,5.15
2022-10-01T07:18:10.580Z,4.47
2022-10-01T07:19:12.452Z,4.47
2022-10-01T07:20:17.613Z,4.35
2022-10-01T07:21:20.518Z,5.40
2022-10-01T07:22:24.129Z,4.15
2022-10-01T07:23:27.150Z,4.55
2022-10-01T07:24:28.987Z,4.78
2022-10-01T07:25:31.691Z,4.47
2022-10-01T07:26:33.622Z,4.28
2022-10-01T07:27:37.100Z,4.20
2022-10-01T07:28:40.442Z,5.03
2022-10-01T07:29:43.376Z,4.38
2022-10-01T07:30:47.536Z,3.85
2022-10-01T07:31:50.476Z,4.57
2022-10-01T07:32:52.601Z,4.70
2022-10-01T07:33:58.198Z,3.80
2022-10-01T07:34:59.934Z,3.40
2022-10-01T07:36:03.665Z,3.90
2022-10-01T07:37:06.294Z,4.15
2022-10-01T07:38:09.176Z,4.10
2022-10-01T07:39:11.446Z,4.10
2022-10-01T07:40:16.297Z,3.50
2022-10-01T07:41:18.174Z,3.72
2022-10-01T07:42:21.427Z,4.25
2022-10-01T07:43:24.297Z,3.58
2022-10-01T07:44:28.871Z,3.15
2022-10-01T07:45:31.817Z,3.10
2022-10-01T07:46:34.827Z,3.42
2022-10-01T07:47:37.939Z,4.47
2022-10-01T07:48:39.832Z,3.08
2022-10-01T07:49:42.564Z,2.70
2022-10-01T07:50:45.300Z,3.20
2022-10-01T07:51:48.712Z,3.85
2022-10-01T07:52:52.780Z,2.97
2022-10-01T07:53:55.606Z,3.80
2022-10-01T07:54:58.357Z,3.40
2022-10-01T07:56:00.860Z,3.05
2022-10-01T07:57:03.583Z,2.63
2022-10-01T07:58:05.677Z,3.20
2022-10-01T07:59:10.635Z,3.33
2022-10-01T08:00:14.200Z,3.30
2022-10-01T08:01:17.845Z,3.50
2022-10-01T08:02:48.713Z,2.63
2022-10-01T08:03:51.848Z,2.78
2022-10-01T08:05:12.054Z,2.47
2022-10-01T08:06:15.105Z,2.30
2022-10-01T08:07:16.944Z,2.50
2022-10-01T08:08:19.984Z,2.90
2022-10-01T08:09:21.813Z,2.65
2022-10-01T08:10:24.665Z,2.40
2022-10-01T08:11:26.516Z,3.92
2022-10-01T08:12:30.373Z,2.10
2022-10-01T08:13:32.109Z,2.30
2022-10-01T08:14:35.383Z,2.88
2022-10-01T08:15:38.556Z,2.45
2022-10-01T08:16:42.085Z,3.17
2022-10-01T08:17:44.728Z,3.78
2022-10-01T08:18:47.417Z,2.20
2022-10-01T08:19:49.212Z,2.25
2022-10-01T08:20:53.390Z,2.70
2022-10-01T08:21:55.158Z,1.95
2022-10-01T08:23:03.120Z,2.58
2022-10-01T08:24:05.436Z,2.40
2022-10-01T08:25:09.187Z,2.03
2022-10-01T08:26:11.626Z,2.90
2022-10-01T08:27:14.479Z,2.53
2022-10-01T08:28:17.690Z,2.20
2022-10-01T08:29:19.561Z,2.33
2022-10-01T08:30:22.914Z,2.35
2022-10-01T08:31:27.001Z,2.47
2022-10-01T08:32:31.616Z,3.60
2022-10-01T08:33:34.839Z,3.13
2022-10-01T08:34:37.669Z,4.40
2022-10-01T08:35:41.215Z,2.15
2022-10-01T08:36:43.056Z,2.17
2022-10-01T08:37:46.306Z,2.40
2022-10-01T08:38:49.795Z,3.67
2022-10-01T08:39:51.679Z,3.92
2022-10-01T08:40:54.577Z,2.17
2022-10-01T08:42:07.530Z,2.30
2022-10-01T08:43:21.178Z,2.78
2022-10-01T08:44:29.595Z,2.60
2022-10-01T08:45:40.166Z,2.50
2022-10-01T08:46:45.808Z,3.53
2022-10-01T08:47:55.532Z,2.42
2022-10-01T08:49:03.802Z,2.10
2022-10-01T08:50:14.348Z,3.50
2022-10-01T08:51:24.752Z,2.08
2022-10-01T08:52:29.768Z,2.45
2022-10-01T08:53:37.510Z,1.80
2022-10-01T08:54:42.653Z,2.25
2022-10-01T08:55:45.426Z,2.00
2022-10-01T08:56:47.876Z,2.90
2022-10-01T08:57:54.452Z,2.10
2022-10-01T08:58:58.904Z,2.25
2022-10-01T09:00:04.279Z,2.00
2022-10-01T09:01:06.429Z,2.30
2022-10-01T09:02:20.281Z,2.05
2022-10-01T09:03:23.348Z,3.65
2022-10-01T09:04:25.609Z,2.25
2022-10-01T09:05:35.898Z,1.58
2022-10-01T09:06:38.855Z,2.08
2022-10-01T09:07:56.264Z,2.22
2022-10-01T09:09:17.514Z,2.85
2022-10-01T09:10:42.160Z,1.73
2022-10-01T09:12:05.484Z,1.75
2022-10-01T09:13:40.539Z,1.50
2022-10-01T09:15:01.480Z,1.40
2022-10-01T09:16:13.093Z,2.17
2022-10-01T09:17:24.878Z,1.90
2022-10-01T09:18:34.964Z,4.65
2022-10-01T09:19:54.362Z,1.70
2022-10-01T09:20:58.725Z,1.30
2022-10-01T09:22:05.414Z,1.60
2022-10-01T09:23:18.504Z,6.75
2022-10-01T09:24:40.578Z,1.90
2022-10-01T09:25:45.837Z,2.45
2022-10-01T09:26:48.817Z,1.70
2022-10-01T09:27:52.477Z,1.60
2022-10-01T09:28:55.912Z,1.85
2022-10-01T09:30:02.147Z,1.55
2022-10-01T09:31:12.852Z,1.55
2022-10-01T09:32:20.939Z,1.60
2022-10-01T09:33:30.154Z,1.63
2022-10-01T09:34:37.308Z,1.90
2022-10-01T09:35:45.088Z,1.98
2022-10-01T09:36:56.805Z,1.60
2022-10-01T09:38:04.224Z,1.77
2022-10-01T09:39:15.058Z,3.17
2022-10-01T09:40:25.728Z,2.25
2022-10-01T09:41:30.114Z,5.30
2022-10-01T09:42:32.601Z,1.60
2022-10-01T09:43:37.948Z,2.05
2022-10-01T09:44:39.732Z,1.50
2022-10-01T09:45:42.910Z,1.77
2022-10-01T09:46:46.164Z,1.65
2022-10-01T09:47:54.409Z,1.98
2022-10-01T09:49:01.333Z,2.45
2022-10-01T09:50:06.303Z,1.95
2022-10-01T09:51:13.340Z,1.45
2022-10-01T09:52:20.815Z,1.83
2022-10-01T09:53:31.059Z,1.70
2022-10-01T09:54:39.487Z,1.70
2022-10-01T09:55:45.812Z,1.58
2022-10-01T09:56:52.983Z,1.30
2022-10-01T09:58:01.831Z,1.52
2022-10-01T09:59:09.454Z,5.57
2022-10-01T10:00:17.313Z,1.60
2022-10-01T10:01:27.760Z,1.52
2022-10-01T10:02:32.912Z,2.35
2022-10-01T10:03:37.256Z,2.10
2022-10-01T10:04:40.234Z,2.40
2022-10-01T10:05:46.586Z,4.47
2022-10-01T10:06:49.660Z,2.38
2022-10-01T10:07:55.430Z,3.53
2022-10-01T10:09:00.285Z,2.35
2022-10-01T10:10:12.604Z,2.20
2022-10-01T10:11:22.448Z,2.13
2022-10-01T10:12:30.407Z,2.72
2022-10-01T10:13:35.302Z,3.45
2022-10-01T10:14:41.290Z,2.28
2022-10-01T10:15:50.554Z,2.15
2022-10-01T10:16:54.758Z,2.80
2022-10-01T10:18:10.186Z,4.30
2022-10-01T10:19:23.413Z,3.22
2022-10-01T10:20:39.655Z,1.77
2022-10-01T10:21:52.078Z,1.50
2022-10-01T10:22:54.310Z,1.80
2022-10-01T10:23:59.994Z,1.70
2022-10-01T10:25:12.181Z,3.25
2022-10-01T10:26:21.768Z,2.13
2022-10-01T10:27:27.826Z,2.58
2022-10-01T10:28:43.611Z,1.67
2022-10-01T10:29:46.763Z,1.90
2022-10-01T10:30:49.978Z,1.60
2022-10-01T10:31:55.458Z,2.00
2022-10-01T10:33:04.625Z,1.85
2022-10-01T10:34:12.738Z,2.10
2022-10-01T10:35:20.407Z,1.60
2022-10-01T10:36:28.876Z,2.22
2022-10-01T10:37:35.312Z,4.93
2022-10-01T10:38:39.296Z,1.75
2022-10-01T10:39:44.885Z,2.17
2022-10-01T10:40:47.729Z,2.50
2022-10-01T10:41:51.563Z,2.22
2022-10-01T10:42:56.460Z,2.72
2022-10-01T10:44:03.707Z,1.85
2022-10-01T10:45:17.668Z,2.10
2022-10-01T10:46:31.883Z,2.63
2022-10-01T10:47:46.192Z,2.55
2022-10-01T10:48:58.981Z,2.35
2022-10-01T10:50:06.462Z,2.58
2022-10-01T10:51:10.408Z,8.73
2022-10-01T10:52:23.587Z,3.17
2022-10-01T10:53:28.629Z,3.00
2022-10-01T10:54:33.846Z,2.90
2022-10-01T10:55:36.205Z,3.42
2022-10-01T10:56:40.067Z,2.50
2022-10-01T10:57:42.920Z,1.83
2022-10-01T10:58:45.254Z,2.45
2022-10-01T10:59:57.086Z,2.08
2022-10-01T11:01:01.621Z,2.28
2022-10-01T11:02:14.261Z,2.47
2022-10-01T11:03:18.627Z,2.83
2022-10-01T11:04:29.198Z,3.13
2022-10-01T11:05:34.476Z,3.03
2022-10-01T11:06:38.297Z,2.58
2022-10-01T11:07:45.295Z,4.22
2022-10-01T11:08:57.119Z,2.47
2022-10-01T11:10:30.063Z,2.50
2022-10-01T11:11:49.048Z,3.17
2022-10-01T11:13:18.558Z,4.53
2022-10-01T11:14:39.105Z,3.88
2022-10-01T11:15:55.861Z,2.13
2022-10-01T11:17:19.784Z,2.40
2022-10-01T11:18:32.877Z,1.80
2022-10-01T11:19:51.010Z,1.90
2022-10-01T11:21:08.429Z,2.45
2022-10-01T11:22:32.764Z,2.30
2022-10-01T11:23:48.695Z,2.35
2022-10-01T11:25:20.349Z,2.80
2022-10-01T11:26:28.850Z,2.28
2022-10-01T11:27:42.560Z,2.10
2022-10-01T11:28:56.068Z,2.10
2022-10-01T11:30:06.245Z,2.80
2022-10-01T11:31:18.520Z,2.90
2022-10-01T11:32:33.996Z,3.30
2022-10-01T11:33:45.041Z,2.03
2022-10-01T11:35:03.915Z,3.10
2022-10-01T11:36:14.975Z,2.80
2022-10-01T11:37:34.954Z,3.10
2022-10-01T11:38:51.553Z,2.63
2022-10-01T11:39:59.326Z,3.33
2022-10-01T11:41:08.614Z,2.78
2022-10-01T11:42:16.875Z,3.10
2022-10-01T11:43:23.892Z,2.72
2022-10-01T11:44:32.577Z,2.70
2022-10-01T11:45:40.330Z,2.22
2022-10-01T11:46:53.426Z,2.45
2022-10-01T11:48:00.367Z,2.00
2022-10-01T11:49:21.087Z,2.30
2022-10-01T11:50:28.806Z,2.35
2022-10-01T11:51:38.746Z,5.03
2022-10-01T11:52:49.143Z,5.28
2022-10-01T11:53:56.411Z,2.60
2022-10-01T11:55:28.456Z,3.85
2022-10-01T11:56:58.565Z,2.80
2022-10-01T11:58:24.555Z,2.67
2022-10-01T11:59:32.207Z,2.17
2022-10-01T12:00:36.798Z,2.22
2022-10-01T12:01:43.637Z,3.03
2022-10-01T12:02:53.975Z,2.35
2022-10-01T12:04:04.076Z,2.70
2022-10-01T12:05:11.214Z,2.35
2022-10-01T12:06:14.855Z,2.20
2022-10-01T12:07:26.761Z,2.10
2022-10-01T12:08:36.624Z,2.47
2022-10-01T12:09:50.059Z,3.28
2022-10-01T12:10:59.200Z,2.40
2022-10-01T12:12:06.885Z,2.63
2022-10-01T12:13:19.774Z,2.75
2022-10-01T12:14:33.964Z,2.03
2022-10-01T12:15:43.449Z,3.40
2022-10-01T12:16:51.892Z,2.33
2022-10-01T12:18:00.003Z,2.38
2022-10-01T12:19:11.817Z,2.55
2022-10-01T12:20:24.335Z,1.70
2022-10-01T12:21:29.365Z,1.80
2022-10-01T12:22:36.511Z,3.30
2022-10-01T12:23:44.571Z,4.28
2022-10-01T12:24:48.548Z,7.45
2022-10-01T12:25:59.108Z,4.40
2022-10-01T12:27:26.408Z,2.20
2022-10-01T12:28:35.100Z,2.00
2022-10-01T12:29:50.737Z,2.30
2022-10-01T12:30:59.995Z,1.80
2022-10-01T12:32:13.559Z,2.83
2022-10-01T12:33:36.356Z,1.83
2022-10-01T12:34:53.195Z,2.70
2022-10-01T12:36:08.980Z,2.20
2022-10-01T12:37:22.996Z,2.90
2022-10-01T12:38:41.755Z,2.05
2022-10-01T12:39:59.048Z,1.70
2022-10-01T12:41:13.883Z,1.95
2022-10-01T12:42:33.467Z,1.42
2022-10-01T12:43:47.265Z,1.50
2022-10-01T12:45:01.006Z,1.63
2022-10-01T12:46:12.667Z,1.50
2022-10-01T12:47:35.077Z,2.15
2022-10-01T12:48:44.676Z,1.63
2022-10-01T12:49:54.265Z,2.10
2022-10-01T12:51:13.534Z,1.90
2022-10-01T12:52:27.791Z,1.48
2022-10-01T12:53:38.801Z,1.60
2022-10-01T12:54:56.330Z,2.00
2022-10-01T12:56:06.335Z,1.48
2022-10-01T12:57:24.588Z,1.55
2022-10-01T12:58:43.651Z,1.63
2022-10-01T12:59:59.308Z,1.85
2022-10-01T13:01:11.798Z,1.60
2022-10-01T13:02:35.716Z,1.70
2022-10-01T13:04:21.743Z,1.73
2022-10-01T13:05:30.016Z,2.42
2022-10-01T13:06:41.249Z,2.05
2022-10-01T13:07:56.648Z,2.03
2022-10-01T13:09:11.061Z,2.10
2022-10-01T13:10:24.507Z,2.72
2022-10-01T13:11:43.153Z,2.47
2022-10-01T13:12:58.949Z,2.17
2022-10-01T13:14:03.432Z,1.63
2022-10-01T13:15:12.686Z,1.35
2022-10-01T13:16:23.066Z,2.20
2022-10-01T13:17:34.879Z,1.00
2022-10-01T13:18:50.634Z,1.55
2022-10-01T13:20:00.488Z,1.50
2022-10-01T13:21:08.943Z,1.55
2022-10-01T13:22:20.121Z,1.90
2022-10-01T13:23:28.303Z,1.25
2022-10-01T13:24:38.236Z,3.58
2022-10-01T13:25:53.253Z,1.20
2022-10-01T13:27:03.390Z,1.20
2022-10-01T13:28:15.132Z,1.25
2022-10-01T13:29:31.413Z,1.25
2022-10-01T13:30:43.292Z,1.13
2022-10-01T13:31:56.782Z,1.08
2022-10-01T13:33:01.139Z,1.35
2022-10-01T13:34:04.016Z,1.20
2022-10-01T13:35:25.214Z,1.40
2022-10-01T13:36:31.597Z,1.30
2022-10-01T13:37:39.799Z,1.30
2022-10-01T13:38:43.505Z,1.23
2022-10-01T13:39:48.069Z,1.27
2022-10-01T13:40:59.934Z,1.73
2022-10-01T13:42:06.702Z,1.20
2022-10-01T13:43:16.202Z,1.13
2022-10-01T13:44:26.452Z,1.20
2022-10-01T13:45:34.225Z,0.95
2022-10-01T13:46:53.470Z,1.30
2022-10-01T13:48:14.890Z,1.48
2022-10-01T13:49:25.213Z,1.08
2022-10-01T13:50:27.215Z,0.93
2022-10-01T13:51:36.210Z,1.40
2022-10-01T13:52:38.131Z,1.13
2022-10-01T13:53:49.953Z,0.93
2022-10-01T13:54:54.357Z,1.05
2022-10-01T13:55:58.830Z,1.45
2022-10-01T13:57:07.972Z,1.33
2022-10-01T13:58:23.287Z,1.30
2022-10-01T13:59:33.496Z,1.20
2022-10-01T14:00:35.295Z,0.82
2022-10-01T14:01:41.508Z,3.00
2022-10-01T14:02:45.387Z,1.73
2022-10-01T14:03:54.002Z,1.33
2022-10-01T14:04:56.642Z,1.15
2022-10-01T14:06:00.486Z,1.40
2022-10-01T14:07:12.120Z,1.20
2022-10-01T14:08:17.689Z,1.25
2022-10-01T14:09:24.339Z,1.15
2022-10-01T14:10:34.809Z,1.02
2022-10-01T14:12:01.036Z,2.65
2022-10-01T14:13:34.919Z,1.13
2022-10-01T14:14:56.646Z,1.13
2022-10-01T14:16:00.101Z,2.75
2022-10-01T14:17:03.397Z,1.70
2022-10-01T14:18:11.145Z,1.58
2022-10-01T14:19:18.387Z,1.20
2022-10-01T14:20:24.966Z,1.33
2022-10-01T14:21:42.533Z,1.20
2022-10-01T14:23:00.565Z,1.20
2022-10-01T14:24:15.679Z,1.20
2022-10-01T14:25:36.941Z,1.10
2022-10-01T14:26:50.599Z,1.35
2022-10-01T14:28:07.320Z,1.52
2022-10-01T14:29:23.952Z,1.33
2022-10-01T14:30:34.934Z,1.40
2022-10-01T14:31:51.167Z,1.33
2022-10-01T14:33:16.565Z,1.60
2022-10-01T14:34:34.248Z,1.08
2022-10-01T14:35:45.106Z,0.90
2022-10-01T14:36:50.662Z,1.50
2022-10-01T14:37:59.594Z,1.38
2022-10-01T14:39:13.284Z,1.70
2022-10-01T14:40:18.992Z,1.13
2022-10-01T14:41:24.217Z,1.98
2022-10-01T14:42:28.503Z,1.10
2022-10-01T14:43:32.268Z,1.75
2022-10-01T14:44:40.295Z,2.75
2022-10-01T14:45:50.445Z,1.58
2022-10-01T14:46:55.969Z,1.30
2022-10-01T14:48:02.056Z,0.98
2022-10-01T14:49:05.203Z,1.65